createdAt,value
2023-05-03T00:00:55.615Z,23.34
2023-05-03T00:03:23.936Z,23.33
2023-05-03T00:05:52.020Z,23.33
2023-05-03T00:08:22.138Z,23.33
2023-05-03T00:10:49.844Z,22.98
2023-05-03T00:13:17.564Z,22.37
2023-05-03T00:15:45.377Z,23.29
2023-05-03T00:18:13.372Z,23.17
2023-05-03T00:20:41.253Z,23.30
2023-05-03T00:23:08.909Z,23.25
2023-05-03T00:25:36.829Z,23.25
2023-05-03T00:28:04.828Z,23.29
2023-05-03T00:30:32.632Z,23.22
2023-05-03T00:33:00.549Z,23.10
2023-05-03T00:35:28.309Z,23.07
2023-05-03T00:37:56.107Z,23.04
2023-05-03T00:40:23.884Z,22.96
2023-05-03T00:42:51.814Z,23.06
2023-05-03T00:45:22.211Z,22.98
2023-05-03T00:47:50.170Z,23.09
2023-05-03T00:50:18.240Z,23.17
2023-05-03T00:52:46.359Z,22.89
2023-05-03T00:55:15.848Z,22.85
2023-05-03T00:57:44.545Z,23.00
2023-05-03T01:00:13.755Z,23.12
2023-05-03T01:02:41.763Z,22.98
2023-05-03T01:05:10.951Z,23.10
2023-05-03T01:07:44.050Z,23.24
2023-05-03T01:10:23.535Z,23.16
2023-05-03T01:12:54.283Z,23.23
2023-05-03T01:15:57.001Z,23.19
2023-05-03T01:18:32.549Z,23.19
2023-05-03T01:21:02.840Z,23.11
2023-05-03T01:23:51.776Z,23.17
2023-05-03T01:26:20.693Z,23.21
2023-05-03T01:28:48.659Z,23.11
2023-05-03T01:31:43.314Z,23.16
2023-05-03T01:34:17.150Z,23.16
2023-05-03T01:36:46.100Z,22.89
2023-05-03T01:39:24.916Z,23.08
2023-05-03T01:41:53.728Z,23.12
2023-05-03T01:44:23.187Z,23.10
2023-05-03T01:46:50.894Z,22.88
2023-05-03T01:49:18.702Z,22.96
2023-05-03T01:51:46.534Z,22.99
2023-05-03T01:54:14.412Z,23.10
2023-05-03T01:56:42.082Z,23.10
2023-05-03T01:59:09.979Z,22.75
2023-05-03T02:01:37.810Z,23.06
2023-05-03T02:04:05.593Z,22.68
2023-05-03T02:06:33.545Z,22.69
2023-05-03T02:09:01.552Z,22.86
2023-05-03T02:11:29.321Z,22.97
2023-05-03T02:13:57.107Z,22.98
2023-05-03T02:16:24.823Z,22.85
2023-05-03T02:18:54.062Z,23.05
2023-05-03T02:21:21.831Z,22.82
2023-05-03T02:23:49.680Z,22.79
2023-05-03T02:26:17.542Z,22.84
2023-05-03T02:28:45.228Z,23.03
2023-05-03T02:31:16.203Z,22.64
2023-05-03T02:33:44.527Z,22.60
2023-05-03T02:36:12.280Z,23.01
2023-05-03T02:38:39.987Z,22.91
2023-05-03T02:41:08.235Z,22.81
2023-05-03T02:43:35.893Z,22.82
2023-05-03T02:46:03.785Z,22.79
2023-05-03T02:48:32.032Z,22.87
2023-05-03T02:51:00.061Z,22.42
2023-05-03T02:53:27.889Z,22.40
2023-05-03T02:55:59.587Z,22.66
2023-05-03T02:58:27.512Z,22.95
2023-05-03T03:00:55.736Z,22.81
2023-05-03T03:03:26.454Z,22.94
2023-05-03T03:05:54.103Z,22.94
2023-05-03T03:08:23.187Z,22.96
2023-05-03T03:10:51.672Z,22.95
2023-05-03T03:13:19.564Z,22.67
2023-05-03T03:15:47.345Z,22.77
2023-05-03T03:18:16.059Z,22.86
2023-05-03T03:20:44.917Z,22.76
2023-05-03T03:23:12.899Z,22.80
2023-05-03T03:25:42.579Z,22.84
2023-05-03T03:28:10.315Z,22.85
2023-05-03T03:30:39.032Z,22.66
2023-05-03T03:33:17.369Z,22.61
2023-05-03T03:35:45.820Z,22.73
2023-05-03T03:38:13.953Z,22.55
2023-05-03T03:40:49.750Z,22.75
2023-05-03T03:43:17.613Z,22.96
2023-05-03T03:45:45.979Z,22.83
2023-05-03T03:48:16.299Z,22.96
2023-05-03T03:50:44.358Z,22.86
2023-05-03T03:53:13.553Z,22.72
2023-05-03T03:55:41.935Z,22.95
2023-05-03T03:58:09.991Z,22.68
2023-05-03T04:00:38.677Z,22.75
2023-05-03T04:03:13.337Z,22.74
2023-05-03T04:05:41.128Z,22.55
2023-05-03T04:08:09.585Z,22.70
2023-05-03T04:10:38.928Z,22.81
2023-05-03T04:13:09.680Z,22.80
2023-05-03T04:15:37.659Z,22.70
2023-05-03T04:18:06.787Z,22.69
2023-05-03T04:20:39.007Z,22.57
2023-05-03T04:23:08.674Z,22.93
2023-05-03T04:25:37.238Z,22.75
2023-05-03T04:28:13.837Z,22.86
2023-05-03T04:30:47.188Z,22.76
2023-05-03T04:33:17.792Z,22.91
2023-05-03T04:35:45.818Z,22.93
2023-05-03T04:38:15.882Z,22.60
2023-05-03T04:40:44.294Z,22.82
2023-05-03T04:43:13.059Z,22.76
2023-05-03T04:45:45.218Z,22.56
2023-05-03T04:48:18.328Z,22.72
2023-05-03T04:50:46.493Z,22.45
2023-05-03T04:53:16.622Z,22.85
2023-05-03T04:55:48.284Z,22.86
2023-05-03T04:58:16.039Z,22.72
2023-05-03T05:00:46.239Z,22.88
2023-05-03T05:03:20.178Z,22.89
2023-05-03T05:05:48.659Z,22.77
2023-05-03T05:08:16.681Z,22.64
2023-05-03T05:10:50.688Z,22.65
2023-05-03T05:13:23.060Z,22.58
2023-05-03T05:15:54.053Z,22.72
2023-05-03T05:18:22.905Z,22.94
2023-05-03T05:20:52.408Z,22.95
2023-05-03T05:23:21.210Z,22.95
2023-05-03T05:25:49.552Z,22.63
2023-05-03T05:28:18.501Z,22.75
2023-05-03T05:30:47.647Z,22.98
2023-05-03T05:33:20.402Z,22.68
2023-05-03T05:35:53.861Z,22.64
2023-05-03T05:38:28.168Z,22.48
2023-05-03T05:40:58.855Z,23.00
2023-05-03T05:43:26.733Z,22.57
2023-05-03T05:45:56.033Z,23.02
2023-05-03T05:48:25.528Z,22.77
2023-05-03T05:50:53.530Z,22.82
2023-05-03T05:53:21.392Z,23.07
2023-05-03T05:55:56.625Z,22.68
2023-05-03T05:58:26.389Z,23.02
2023-05-03T06:01:01.513Z,22.84
2023-05-03T06:03:31.930Z,22.87
2023-05-03T06:06:02.556Z,22.69
2023-05-03T06:08:30.402Z,22.85
2023-05-03T06:11:01.290Z,22.79
2023-05-03T06:13:33.870Z,22.94
2023-05-03T06:16:02.709Z,22.88
2023-05-03T06:18:30.541Z,23.09
2023-05-03T06:20:58.479Z,23.00
2023-05-03T06:23:28.305Z,23.00
2023-05-03T06:25:57.684Z,23.07
2023-05-03T06:28:26.018Z,22.78
2023-05-03T06:30:56.180Z,22.79
2023-05-03T06:33:24.208Z,23.06
2023-05-03T06:35:53.178Z,23.01
2023-05-03T06:38:21.462Z,23.20
2023-05-03T06:40:50.557Z,23.11
2023-05-03T06:43:18.553Z,23.23
2023-05-03T06:46:06.945Z,23.12
2023-05-03T06:48:34.609Z,23.04
2023-05-03T06:51:02.608Z,23.15
2023-05-03T06:53:30.544Z,23.17
2023-05-03T06:55:58.226Z,23.21
2023-05-03T06:58:26.028Z,23.38
2023-05-03T07:00:54.094Z,23.23
2023-05-03T07:03:21.978Z,23.52
2023-05-03T07:05:49.706Z,23.56
2023-05-03T07:08:17.887Z,23.57
2023-05-03T07:10:45.632Z,23.28
2023-05-03T07:13:14.380Z,23.53
2023-05-03T07:15:42.544Z,23.60
2023-05-03T07:18:10.358Z,23.45
2023-05-03T07:20:38.644Z,23.61
2023-05-03T07:23:07.525Z,23.52
2023-05-03T07:25:35.271Z,23.65
2023-05-03T07:28:03.624Z,23.44
2023-05-03T07:30:31.604Z,23.76
2023-05-03T07:32:59.571Z,23.48
2023-05-03T07:35:27.418Z,23.57
2023-05-03T07:37:55.377Z,23.53
2023-05-03T07:40:23.465Z,23.63
2023-05-03T07:42:52.294Z,23.45
2023-05-03T07:45:21.039Z,23.54
2023-05-03T07:47:48.914Z,23.47
2023-05-03T07:50:20.657Z,23.55
2023-05-03T07:52:51.948Z,23.31
2023-05-03T07:55:20.660Z,23.28
2023-05-03T07:57:48.605Z,23.58
2023-05-03T08:00:18.189Z,23.27
2023-05-03T08:02:46.093Z,23.60
2023-05-03T08:05:15.119Z,23.59
2023-05-03T08:07:43.106Z,23.47
2023-05-03T08:10:11.428Z,23.60
2023-05-03T08:12:39.515Z,23.58
2023-05-03T08:15:08.416Z,23.61
2023-05-03T08:17:46.614Z,23.64
2023-05-03T08:20:14.816Z,23.38
2023-05-03T08:22:43.030Z,23.22
2023-05-03T08:25:11.622Z,23.47
2023-05-03T08:27:40.198Z,23.47
2023-05-03T08:30:08.789Z,23.38
2023-05-03T08:32:36.707Z,23.35
2023-05-03T08:35:07.215Z,23.60
2023-05-03T08:37:40.244Z,23.48
2023-05-03T08:40:11.848Z,23.53
2023-05-03T08:42:46.397Z,23.65
2023-05-03T08:45:17.646Z,23.75
2023-05-03T08:47:46.107Z,23.76
2023-05-03T08:50:15.626Z,23.78
2023-05-03T08:52:44.522Z,23.82
2023-05-03T08:55:12.849Z,23.54
2023-05-03T08:57:41.830Z,23.73
2023-05-03T09:00:11.346Z,23.71
2023-05-03T09:02:40.411Z,23.59
2023-05-03T09:05:17.602Z,23.87
2023-05-03T09:08:13.924Z,23.88
2023-05-03T09:10:43.121Z,23.82
2023-05-03T09:13:12.226Z,23.60
2023-05-03T09:15:40.230Z,23.62
2023-05-03T09:18:19.083Z,23.86
2023-05-03T09:20:52.841Z,23.83
2023-05-03T09:23:26.988Z,23.87
2023-05-03T09:25:55.041Z,23.87
2023-05-03T09:28:22.857Z,23.87
2023-05-03T09:31:04.000Z,23.70
2023-05-03T09:33:31.871Z,23.79
2023-05-03T09:36:04.929Z,23.87
2023-05-03T09:38:35.073Z,23.95
2023-05-03T09:41:06.027Z,23.98
2023-05-03T09:43:35.547Z,23.81
2023-05-03T09:46:13.482Z,24.00
2023-05-03T09:48:41.611Z,24.06
2023-05-03T09:51:11.555Z,24.06
2023-05-03T09:53:40.738Z,23.88
2023-05-03T09:56:13.236Z,24.02
2023-05-03T09:58:42.256Z,24.08
2023-05-03T10:01:11.068Z,24.10
2023-05-03T10:03:44.212Z,24.12
2023-05-03T10:06:30.284Z,24.02
2023-05-03T10:09:16.570Z,24.10
2023-05-03T10:11:49.087Z,23.98
2023-05-03T10:14:17.191Z,24.07
2023-05-03T10:16:48.686Z,24.22
2023-05-03T10:19:21.717Z,23.97
2023-05-03T10:22:03.722Z,24.24
2023-05-03T10:24:32.408Z,24.12
2023-05-03T10:27:00.814Z,24.11
2023-05-03T10:29:37.809Z,24.27
2023-05-03T10:32:06.037Z,24.25
2023-05-03T10:34:35.954Z,24.11
2023-05-03T10:37:09.662Z,24.12
2023-05-03T10:39:46.805Z,24.16
2023-05-03T10:42:14.811Z,24.20
2023-05-03T10:44:55.552Z,24.34
2023-05-03T10:47:24.713Z,24.42
2023-05-03T10:50:21.186Z,24.44
2023-05-03T10:52:49.137Z,24.17
2023-05-03T10:55:22.231Z,24.29
2023-05-03T10:57:54.003Z,24.35
2023-05-03T11:00:36.171Z,24.28
2023-05-03T11:03:18.962Z,24.48
2023-05-03T11:05:49.604Z,24.24
2023-05-03T11:08:22.498Z,24.27
2023-05-03T11:10:57.568Z,24.49
2023-05-03T11:13:26.137Z,24.42
2023-05-03T11:15:57.280Z,24.44
2023-05-03T11:18:27.835Z,24.51
2023-05-03T11:20:56.147Z,24.41
2023-05-03T11:23:28.898Z,24.54
2023-05-03T11:26:00.170Z,24.49
2023-05-03T11:28:28.060Z,24.57
2023-05-03T11:30:55.730Z,24.35
2023-05-03T11:33:23.622Z,24.44
2023-05-03T11:35:56.520Z,24.08
2023-05-03T11:38:24.393Z,24.47
2023-05-03T11:40:52.776Z,24.44
2023-05-03T11:43:20.626Z,24.58
2023-05-03T11:48:41.859Z,24.29
2023-05-03T11:51:14.125Z,24.67
2023-05-03T11:53:44.334Z,24.63
2023-05-03T11:56:19.206Z,24.47
2023-05-03T11:58:58.854Z,24.46
2023-05-03T12:01:29.133Z,24.72
2023-05-03T12:04:04.853Z,24.72
2023-05-03T12:06:35.742Z,24.53
2023-05-03T12:09:05.406Z,24.76
2023-05-03T12:11:44.729Z,24.68
2023-05-03T12:14:13.418Z,24.71
2023-05-03T12:16:51.185Z,24.54
2023-05-03T12:19:32.191Z,24.72
2023-05-03T12:22:22.873Z,24.68
2023-05-03T12:24:49.801Z,24.47
2023-05-03T12:27:19.639Z,24.57
2023-05-03T12:30:01.830Z,24.69
2023-05-03T12:32:30.024Z,24.70
2023-05-03T12:34:58.658Z,24.51
2023-05-03T12:37:33.253Z,24.71
2023-05-03T12:40:29.285Z,24.73
2023-05-03T12:42:50.038Z,24.71
2023-05-03T12:45:21.176Z,24.52
2023-05-03T12:47:50.321Z,24.50
2023-05-03T12:50:18.982Z,24.73
2023-05-03T12:52:47.055Z,24.52
2023-05-03T12:55:17.949Z,24.49
2023-05-03T12:57:53.620Z,24.71
2023-05-03T13:00:35.809Z,24.45
2023-05-03T13:05:40.844Z,24.60
2023-05-03T13:08:11.484Z,24.73
2023-05-03T13:10:41.878Z,24.26
2023-05-03T13:13:09.724Z,24.74
2023-05-03T13:15:38.271Z,24.51
2023-05-03T13:18:07.668Z,24.76
2023-05-03T13:20:37.119Z,24.53
2023-05-03T13:23:04.957Z,24.76
2023-05-03T13:25:32.800Z,24.69
2023-05-03T13:28:01.806Z,24.68
2023-05-03T13:30:29.870Z,24.67
2023-05-03T13:32:57.852Z,24.70
2023-05-03T13:35:26.160Z,24.50
2023-05-03T13:37:53.884Z,24.64
2023-05-03T13:40:21.679Z,24.67
2023-05-03T13:42:49.453Z,24.47
2023-05-03T13:45:18.296Z,24.32
2023-05-03T13:50:16.806Z,24.58
2023-05-03T13:52:44.969Z,24.39
2023-05-03T13:55:12.688Z,24.60
2023-05-03T13:57:44.134Z,24.57
2023-05-03T14:00:12.472Z,24.40
2023-05-03T14:02:40.402Z,24.49
2023-05-03T14:05:08.688Z,24.55
2023-05-03T14:07:38.248Z,24.30
2023-05-03T14:10:07.028Z,24.50
2023-05-03T14:12:36.851Z,24.31
2023-05-03T14:15:08.548Z,24.50
2023-05-03T14:17:36.365Z,24.48
2023-05-03T14:20:08.497Z,24.48
2023-05-03T14:22:36.258Z,24.44
2023-05-03T14:25:04.506Z,24.35
2023-05-03T14:27:33.325Z,24.47
2023-05-03T14:30:01.275Z,24.48
2023-05-03T14:32:29.706Z,24.35
2023-05-03T14:34:57.493Z,24.07
2023-05-03T14:37:25.159Z,24.49
2023-05-03T14:39:53.006Z,24.43
2023-05-03T14:42:20.765Z,24.41
2023-05-03T14:44:48.445Z,24.49
2023-05-03T14:47:16.683Z,24.49
2023-05-03T14:49:44.426Z,24.43
2023-05-03T14:52:12.038Z,24.12
2023-05-03T14:54:39.781Z,24.41
2023-05-03T14:57:08.895Z,24.19
2023-05-03T14:59:36.642Z,24.46
2023-05-03T15:02:04.361Z,24.31
2023-05-03T15:04:32.163Z,24.33
2023-05-03T15:07:04.060Z,24.44
2023-05-03T15:09:31.961Z,24.39
2023-05-03T15:12:02.204Z,24.37
2023-05-03T15:14:30.311Z,24.37
2023-05-03T15:16:58.267Z,24.14
2023-05-03T15:19:26.937Z,24.26
2023-05-03T15:21:55.128Z,24.36
2023-05-03T15:24:23.171Z,24.34
2023-05-03T15:26:51.699Z,24.24
2023-05-03T15:29:19.531Z,24.35
2023-05-03T15:31:47.527Z,24.15
2023-05-03T15:34:15.482Z,24.18
2023-05-03T15:36:43.270Z,24.36
2023-05-03T15:39:11.279Z,24.36
2023-05-03T15:41:39.614Z,24.38
2023-05-03T15:44:09.890Z,24.19
2023-05-03T15:46:38.653Z,24.21
2023-05-03T15:49:07.783Z,24.38
2023-05-03T15:51:35.689Z,24.27
2023-05-03T15:54:04.024Z,24.33
2023-05-03T15:56:32.470Z,24.32
2023-05-03T15:59:00.054Z,24.36
2023-05-03T16:01:27.949Z,24.17
2023-05-03T16:03:56.138Z,24.19
2023-05-03T16:06:23.870Z,24.17
2023-05-03T16:08:52.842Z,24.32
2023-05-03T16:11:20.620Z,24.28
2023-05-03T16:13:48.409Z,24.14
2023-05-03T16:16:16.341Z,24.29
2023-05-03T16:18:44.266Z,24.28
2023-05-03T16:21:12.016Z,23.99
2023-05-03T16:23:39.758Z,24.27
2023-05-03T16:26:18.295Z,24.08
2023-05-03T16:28:47.256Z,24.03
2023-05-03T16:31:19.040Z,24.20
2023-05-03T16:33:46.851Z,23.95
2023-05-03T16:36:14.973Z,24.03
2023-05-03T16:38:42.597Z,24.17
2023-05-03T16:41:10.597Z,23.96
2023-05-03T16:43:38.786Z,24.14
2023-05-03T16:46:07.416Z,24.11
2023-05-03T16:48:35.249Z,24.02
2023-05-03T16:51:02.963Z,23.97
2023-05-03T16:53:31.615Z,24.10
2023-05-03T16:55:59.836Z,24.11
2023-05-03T16:58:27.841Z,23.87
2023-05-03T17:00:56.433Z,24.09
2023-05-03T17:03:25.575Z,23.89
2023-05-03T17:05:54.270Z,24.05
2023-05-03T17:08:21.992Z,23.92
2023-05-03T17:10:50.177Z,23.98
2023-05-03T17:13:18.164Z,23.76
2023-05-03T17:15:48.163Z,24.04
2023-05-03T17:18:16.651Z,23.90
2023-05-03T17:20:44.483Z,23.93
2023-05-03T17:23:12.922Z,24.03
2023-05-03T17:25:42.739Z,23.99
2023-05-03T17:28:10.360Z,23.75
2023-05-03T17:30:39.056Z,23.99
2023-05-03T17:33:08.000Z,23.97
2023-05-03T17:35:35.968Z,23.85
2023-05-03T17:38:05.341Z,24.00
2023-05-03T17:40:33.239Z,23.90
2023-05-03T17:43:01.292Z,23.93
2023-05-03T17:45:29.050Z,23.93
2023-05-03T17:47:58.905Z,23.96
2023-05-03T17:50:26.632Z,23.60
2023-05-03T17:52:54.881Z,23.93
2023-05-03T17:55:22.773Z,23.89
2023-05-03T17:57:51.088Z,23.85
2023-05-03T18:00:21.318Z,23.85
2023-05-03T18:02:49.658Z,23.81
2023-05-03T18:05:17.814Z,23.89
2023-05-03T18:07:45.580Z,23.76
2023-05-03T18:10:16.519Z,23.81
2023-05-03T18:12:44.303Z,23.55
2023-05-03T18:15:12.416Z,23.63
2023-05-03T18:17:40.224Z,23.64
2023-05-03T18:20:09.798Z,23.57
2023-05-03T18:22:37.981Z,23.77
2023-05-03T18:25:07.632Z,23.76
2023-05-03T18:27:37.861Z,23.71
2023-05-03T18:30:06.994Z,23.73
2023-05-03T18:32:35.125Z,23.57
2023-05-03T18:35:03.569Z,23.53
2023-05-03T18:37:31.503Z,23.77
2023-05-03T18:39:59.495Z,23.42
2023-05-03T18:42:27.455Z,23.71
2023-05-03T18:44:55.224Z,23.51
2023-05-03T18:47:23.265Z,23.65
2023-05-03T18:50:01.114Z,23.75
2023-05-03T18:52:28.896Z,23.67
2023-05-03T18:54:56.712Z,23.61
2023-05-03T18:57:24.529Z,23.54
2023-05-03T18:59:59.955Z,23.68
2023-05-03T19:02:31.621Z,23.73
2023-05-03T19:05:00.161Z,23.67
2023-05-03T19:07:29.251Z,23.75
2023-05-03T19:09:57.673Z,23.78
2023-05-03T19:12:25.621Z,23.64
2023-05-03T19:14:53.376Z,23.43
2023-05-03T19:17:21.472Z,23.54
2023-05-03T19:19:49.193Z,23.39
2023-05-03T19:22:16.973Z,23.66
2023-05-03T19:24:44.818Z,23.61
2023-05-03T19:27:12.947Z,23.54
2023-05-03T19:29:40.755Z,23.63
2023-05-03T19:32:08.509Z,23.47
2023-05-03T19:34:36.579Z,23.63
2023-05-03T19:37:05.303Z,23.39
2023-05-03T19:39:35.829Z,23.34
2023-05-03T19:42:04.060Z,23.53
2023-05-03T19:44:32.144Z,23.42
2023-05-03T19:46:59.808Z,23.20
2023-05-03T19:49:27.465Z,23.60
2023-05-03T19:51:56.201Z,23.48
2023-05-03T19:54:23.952Z,23.61
2023-05-03T19:56:51.736Z,23.42
2023-05-03T19:59:19.858Z,23.62
2023-05-03T20:01:47.724Z,23.49
2023-05-03T20:04:15.582Z,23.58
2023-05-03T20:06:43.650Z,23.42
2023-05-03T20:09:13.178Z,23.34
2023-05-03T20:11:41.403Z,23.41
2023-05-03T20:14:09.256Z,23.67
2023-05-03T20:16:39.220Z,23.54
2023-05-03T20:19:07.167Z,23.54
2023-05-03T20:21:34.846Z,23.20
2023-05-03T20:24:04.814Z,23.56
2023-05-03T20:26:32.636Z,23.22
2023-05-03T20:29:01.071Z,23.59
2023-05-03T20:31:28.945Z,23.57
2023-05-03T20:33:56.989Z,23.69
2023-05-03T20:36:24.714Z,23.43
2023-05-03T20:38:52.738Z,23.68
2023-05-03T20:41:20.763Z,23.71
2023-05-03T20:43:48.525Z,23.60
2023-05-03T20:46:18.590Z,23.85
2023-05-03T20:48:46.406Z,23.67
2023-05-03T20:51:15.041Z,23.83
2023-05-03T20:53:42.864Z,23.67
2023-05-03T20:56:11.648Z,23.84
2023-05-03T20:58:39.593Z,23.77
2023-05-03T21:01:08.264Z,23.71
2023-05-03T21:03:36.388Z,23.78
2023-05-03T21:06:05.734Z,23.55
2023-05-03T21:08:33.513Z,23.69
2023-05-03T21:11:01.441Z,23.54
2023-05-03T21:13:29.244Z,23.64
2023-05-03T21:15:57.064Z,23.64
2023-05-03T21:18:25.221Z,23.64
2023-05-03T21:20:54.401Z,23.71
2023-05-03T21:23:22.285Z,23.78
2023-05-03T21:25:50.084Z,23.78
2023-05-03T21:28:17.762Z,23.48
2023-05-03T21:30:48.649Z,23.65
2023-05-03T21:33:16.776Z,23.64
2023-05-03T21:35:44.765Z,23.57
2023-05-03T21:38:12.588Z,23.62
2023-05-03T21:40:40.413Z,23.69
2023-05-03T21:43:10.008Z,23.31
2023-05-03T21:45:37.796Z,23.66
2023-05-03T21:48:06.516Z,23.63
2023-05-03T21:50:38.075Z,23.65
2023-05-03T21:53:07.264Z,23.64
2023-05-03T21:55:34.889Z,23.58
2023-05-03T21:58:02.594Z,23.43
2023-05-03T22:00:31.959Z,23.43
2023-05-03T22:02:59.865Z,23.59
2023-05-03T22:05:28.525Z,23.38
2023-05-03T22:07:56.279Z,23.43
2023-05-03T22:10:24.010Z,23.59
2023-05-03T22:12:51.940Z,23.32
2023-05-03T22:15:20.568Z,23.61
2023-05-03T22:17:48.481Z,23.17
2023-05-03T22:20:16.453Z,23.52
2023-05-03T22:22:44.227Z,23.50
2023-05-03T22:25:23.145Z,23.61
2023-05-03T22:27:51.934Z,23.37
2023-05-03T22:30:20.551Z,23.59
2023-05-03T22:32:48.296Z,23.60
2023-05-03T22:35:16.219Z,23.46
2023-05-03T22:37:43.966Z,23.57
2023-05-03T22:40:12.238Z,23.42
2023-05-03T22:42:40.041Z,23.56
2023-05-03T22:45:09.038Z,23.44
2023-05-03T22:47:36.935Z,23.24
2023-05-03T22:50:05.885Z,23.32
2023-05-03T22:52:33.881Z,23.30
2023-05-03T22:55:02.379Z,23.13
2023-05-03T22:57:30.351Z,23.29
2023-05-03T22:59:58.250Z,23.55
2023-05-03T23:02:26.882Z,23.26
2023-05-03T23:04:55.014Z,23.41
2023-05-03T23:07:25.230Z,23.33
2023-05-03T23:10:02.816Z,23.43
2023-05-03T23:12:31.867Z,23.49
2023-05-03T23:14:59.887Z,23.49
2023-05-03T23:17:28.401Z,23.33
2023-05-03T23:19:56.108Z,23.48
2023-05-03T23:22:23.742Z,23.41
2023-05-03T23:24:52.010Z,23.27
2023-05-03T23:27:19.692Z,23.38
2023-05-03T23:29:48.373Z,23.43
2023-05-03T23:32:16.811Z,23.27
2023-05-03T23:34:44.900Z,23.22
2023-05-03T23:37:12.548Z,23.39
2023-05-03T23:39:46.965Z,23.33
2023-05-03T23:42:14.667Z,23.50
2023-05-03T23:44:54.411Z,23.45
2023-05-03T23:47:24.315Z,23.22
2023-05-03T23:49:52.499Z,23.42
2023-05-03T23:52:20.771Z,23.37
2023-05-03T23:54:48.604Z,23.29
2023-05-03T23:57:17.197Z,23.49
2023-05-03T23:59:45.280Z,23.49
